Rocky Hill, Mississippi
Current Conditions -  °F | °C
As of 4:15 PM on Tuesday 21 Oct 2014 (Local Time) from KSTF Reporting Station
Broken Clouds Broken Clouds  
Wind Chill: 77°   Ceiling: 5000
Heat Index: 78°   Visibility: 10mi
Dew Point: 54°   Wind: 5mph
Humidity: 44%   Direction: 350°N
Pressure: 30.01"   Gusts: NA
Location:  33.4256°N, 88.8438°W
Report Text: KSTF 212115Z AUTO 35004KT 10SM BKN050 25/12 A3001 RMK AO2
Loading
Personal Weather Stations






























Interactive Weather Map New forecast layout! Learn more

10-Day Weather Forecast

Advertisements
Track Severe Weather on mobile